createdAt,value
2018-09-06T00:01:43.597Z,5.93
2018-09-06T00:04:12.892Z,4.90
2018-09-06T00:06:42.042Z,5.40
2018-09-06T00:09:11.298Z,5.80
2018-09-06T00:11:40.448Z,5.90
2018-09-06T00:14:09.723Z,6.27
2018-09-06T00:16:38.802Z,5.73
2018-09-06T00:19:07.922Z,5.57
2018-09-06T00:21:37.122Z,6.37
2018-09-06T00:24:06.360Z,6.87
2018-09-06T00:26:35.524Z,5.73
2018-09-06T00:29:04.701Z,5.80
2018-09-06T00:31:33.787Z,6.27
2018-09-06T00:34:02.994Z,5.40
2018-09-06T00:36:32.095Z,5.40
2018-09-06T00:39:01.281Z,5.77
2018-09-06T00:41:30.645Z,6.10
2018-09-06T00:43:59.775Z,6.10
2018-09-06T00:46:28.831Z,5.73
2018-09-06T00:48:57.921Z,5.37
2018-09-06T00:51:27.068Z,6.27
2018-09-06T00:53:56.207Z,5.50
2018-09-06T00:56:25.340Z,6.07
2018-09-06T00:58:54.453Z,6.10
2018-09-06T01:01:23.558Z,6.23
2018-09-06T01:03:52.847Z,6.17
2018-09-06T01:06:22.025Z,6.57
2018-09-06T01:08:51.213Z,5.30
2018-09-06T01:11:20.274Z,5.63
2018-09-06T01:13:49.479Z,6.50
2018-09-06T01:16:18.635Z,5.13
2018-09-06T01:18:47.726Z,6.80
2018-09-06T01:21:16.868Z,6.90
2018-09-06T01:23:45.926Z,6.77
2018-09-06T01:26:15.056Z,6.47
2018-09-06T01:28:44.139Z,6.43
2018-09-06T01:31:13.285Z,7.17
2018-09-06T01:33:42.420Z,6.80
2018-09-06T01:36:16.971Z,7.10
2018-09-06T01:38:46.090Z,7.40
2018-09-06T01:41:15.143Z,7.93
2018-09-06T01:43:44.375Z,7.40
2018-09-06T01:46:13.522Z,8.50
2018-09-06T01:48:42.694Z,7.70
2018-09-06T01:51:11.959Z,8.20
2018-09-06T01:53:41.355Z,7.90
2018-09-06T01:56:10.727Z,8.97
2018-09-06T01:58:40.486Z,8.33
2018-09-06T02:01:09.707Z,8.33
2018-09-06T02:03:38.830Z,8.60
2018-09-06T02:06:08.506Z,7.90
2018-09-06T02:08:37.574Z,8.70
2018-09-06T02:11:06.748Z,8.40
2018-09-06T02:13:36.062Z,9.17
2018-09-06T02:16:05.237Z,7.90
2018-09-06T02:18:34.922Z,9.83
2018-09-06T02:21:04.022Z,8.60
2018-09-06T02:23:33.359Z,9.10
2018-09-06T02:26:02.534Z,8.70
2018-09-06T02:28:31.832Z,9.10
2018-09-06T02:31:01.032Z,8.70
2018-09-06T02:33:30.307Z,9.50
2018-09-06T02:35:59.456Z,9.80
2018-09-06T02:38:28.655Z,10.73
2018-09-06T02:40:57.899Z,10.33
2018-09-06T02:43:27.020Z,10.07
2018-09-06T02:45:56.235Z,10.60
2018-09-06T02:48:30.724Z,10.43
2018-09-06T02:51:05.288Z,9.83
2018-09-06T02:53:34.606Z,11.90
2018-09-06T02:56:03.919Z,11.10
2018-09-06T02:58:33.166Z,11.73
2018-09-06T03:01:02.413Z,12.27
2018-09-06T03:03:31.657Z,11.87
2018-09-06T03:06:00.752Z,12.60
2018-09-06T03:08:30.002Z,13.67
2018-09-06T03:11:02.379Z,14.13
2018-09-06T03:13:31.512Z,12.67
2018-09-06T03:16:01.341Z,13.43
2018-09-06T03:18:30.513Z,14.70
2018-09-06T03:20:59.621Z,14.90
2018-09-06T03:23:28.766Z,15.10
2018-09-06T03:25:57.932Z,15.20
2018-09-06T03:28:27.682Z,16.63
2018-09-06T03:30:56.929Z,16.10
2018-09-06T03:33:26.162Z,16.03
2018-09-06T03:35:55.491Z,17.50
2018-09-06T03:38:24.650Z,15.63
2018-09-06T03:40:53.827Z,18.23
2018-09-06T03:43:22.975Z,18.20
2018-09-06T03:45:52.132Z,18.87
2018-09-06T03:48:21.314Z,18.03
2018-09-06T03:50:50.403Z,17.70
2018-09-06T03:53:19.643Z,18.50
2018-09-06T03:55:48.953Z,18.30
2018-09-06T03:58:19.023Z,18.97
2018-09-06T04:00:48.316Z,20.03
2018-09-06T04:03:17.394Z,19.57
2018-09-06T04:05:46.927Z,19.57
2018-09-06T04:08:16.072Z,18.33
2018-09-06T04:10:45.248Z,20.00
2018-09-06T04:13:14.416Z,21.40
2018-09-06T04:15:43.557Z,21.70
2018-09-06T04:18:12.683Z,23.03
2018-09-06T04:20:41.805Z,23.80
2018-09-06T04:23:11.077Z,23.70
2018-09-06T04:25:40.317Z,23.63
2018-09-06T04:28:09.553Z,23.03
2018-09-06T04:30:39.018Z,24.13
2018-09-06T04:33:08.363Z,23.87
2018-09-06T04:35:37.582Z,23.23
2018-09-06T04:38:07.056Z,23.77
2018-09-06T04:40:36.215Z,25.37
2018-09-06T04:43:05.433Z,26.20
2018-09-06T04:45:34.637Z,24.17
2018-09-06T04:48:03.780Z,24.40
2018-09-06T04:50:32.910Z,25.83
2018-09-06T04:53:02.169Z,24.70
2018-09-06T04:55:31.275Z,25.70
2018-09-06T04:58:00.467Z,23.20
2018-09-06T05:00:29.774Z,26.27
2018-09-06T05:02:58.995Z,23.13
2018-09-06T05:05:28.278Z,25.60
2018-09-06T05:07:57.489Z,28.63
2018-09-06T05:10:26.650Z,26.63
2018-09-06T05:12:55.805Z,27.97
2018-09-06T05:15:25.520Z,27.93
2018-09-06T05:17:54.672Z,26.97
2018-09-06T05:20:23.922Z,28.63
2018-09-06T05:22:53.243Z,26.30
2018-09-06T05:25:22.408Z,27.47
2018-09-06T05:27:52.753Z,25.83
2018-09-06T05:30:22.439Z,27.40
2018-09-06T05:32:51.736Z,27.53
2018-09-06T05:35:21.359Z,28.57
2018-09-06T05:37:51.020Z,29.30
2018-09-06T05:40:20.263Z,29.23
2018-09-06T05:42:49.933Z,26.87
2018-09-06T05:45:19.107Z,28.37
2018-09-06T05:47:53.823Z,29.00
2018-09-06T05:50:23.091Z,27.40
2018-09-06T05:52:52.531Z,26.70
2018-09-06T05:55:22.122Z,27.17
2018-09-06T05:57:57.751Z,27.00
2018-09-06T06:00:32.107Z,27.43
2018-09-06T06:03:03.268Z,27.47
2018-09-06T06:05:32.363Z,24.70
2018-09-06T06:08:18.548Z,27.70
2018-09-06T06:10:47.730Z,27.37
2018-09-06T06:13:17.537Z,25.73
2018-09-06T06:15:46.765Z,26.00
2018-09-06T06:18:15.945Z,25.40
2018-09-06T06:20:45.147Z,27.00
2018-09-06T06:23:14.361Z,28.20
2018-09-06T06:25:43.425Z,28.47
2018-09-06T06:28:12.552Z,28.70
2018-09-06T06:30:41.688Z,29.63
2018-09-06T06:33:10.889Z,28.87
2018-09-06T06:35:40.026Z,29.23
2018-09-06T06:38:09.153Z,28.63
2018-09-06T06:40:38.395Z,27.70
2018-09-06T06:43:07.532Z,26.53
2018-09-06T06:45:36.748Z,28.93
2018-09-06T06:48:05.855Z,28.80
2018-09-06T06:50:35.025Z,27.63
2018-09-06T06:53:04.124Z,29.30
2018-09-06T06:55:33.544Z,28.50
2018-09-06T06:58:02.912Z,29.27
2018-09-06T07:00:36.205Z,25.33
2018-09-06T07:03:05.337Z,25.23
2018-09-06T07:05:34.575Z,27.90
2018-09-06T07:08:03.728Z,26.83
2018-09-06T07:10:33.067Z,26.70
2018-09-06T07:13:02.362Z,26.43
2018-09-06T07:15:31.552Z,25.40
2018-09-06T07:18:00.822Z,27.40
2018-09-06T07:20:30.025Z,27.30
2018-09-06T07:22:59.138Z,27.50
2018-09-06T07:25:28.519Z,26.23
2018-09-06T07:27:57.775Z,27.70
2018-09-06T07:30:26.943Z,24.50
2018-09-06T07:32:57.077Z,23.03
2018-09-06T07:35:26.159Z,26.80
2018-09-06T07:37:55.333Z,23.23
2018-09-06T07:40:24.771Z,24.63
2018-09-06T07:42:53.998Z,27.73
2018-09-06T07:45:23.169Z,24.60
2018-09-06T07:47:52.251Z,26.43
2018-09-06T07:50:21.302Z,27.10
2018-09-06T07:52:50.342Z,27.50
2018-09-06T07:55:19.548Z,24.93
2018-09-06T07:57:48.690Z,25.83
2018-09-06T08:00:17.771Z,25.57
2018-09-06T08:02:46.865Z,25.77
2018-09-06T08:05:16.101Z,27.60
2018-09-06T08:07:45.198Z,26.63
2018-09-06T08:10:14.426Z,26.37
2018-09-06T08:12:43.710Z,24.63
2018-09-06T08:15:13.007Z,25.47
2018-09-06T08:17:42.240Z,25.97
2018-09-06T08:20:11.435Z,25.60
2018-09-06T08:22:40.634Z,24.10
2018-09-06T08:25:09.802Z,24.40
2018-09-06T08:27:38.993Z,23.97
2018-09-06T08:30:08.206Z,23.33
2018-09-06T08:32:37.296Z,24.40
2018-09-06T08:35:06.413Z,24.17
2018-09-06T08:37:35.628Z,24.60
2018-09-06T08:40:04.788Z,24.27
2018-09-06T08:42:33.957Z,24.87
2018-09-06T08:45:03.121Z,23.27
2018-09-06T08:47:32.283Z,23.20
2018-09-06T08:50:01.391Z,24.90
2018-09-06T08:52:30.657Z,25.10
2018-09-06T08:54:59.811Z,24.47
2018-09-06T08:57:29.091Z,24.53
2018-09-06T08:59:58.234Z,26.63
2018-09-06T09:02:27.377Z,23.33
2018-09-06T09:04:56.517Z,21.70
2018-09-06T09:07:25.889Z,23.40
2018-09-06T09:09:55.159Z,22.30
2018-09-06T09:12:24.613Z,23.53
2018-09-06T09:14:53.857Z,21.70
2018-09-06T09:17:23.941Z,21.20
2018-09-06T09:19:54.039Z,21.20
2018-09-06T09:22:23.212Z,21.50
2018-09-06T09:24:52.345Z,19.20
2018-09-06T09:27:21.694Z,19.20
2018-09-06T09:29:50.889Z,19.80
2018-09-06T09:32:20.028Z,20.20
2018-09-06T09:34:49.244Z,19.57
2018-09-06T09:37:18.464Z,20.77
2018-09-06T09:39:47.579Z,21.17
2018-09-06T09:42:16.805Z,18.57
2018-09-06T09:44:45.910Z,18.17
2018-09-06T09:49:43.302Z,18.33
2018-09-06T09:52:12.350Z,17.40
2018-09-06T09:54:41.468Z,18.43
2018-09-06T09:57:10.689Z,17.37
2018-09-06T09:59:39.850Z,15.67
2018-09-06T10:02:14.235Z,16.97
2018-09-06T10:04:48.766Z,15.80
2018-09-06T10:07:24.081Z,15.23
2018-09-06T10:09:53.264Z,15.20
2018-09-06T10:12:22.414Z,16.00
2018-09-06T10:14:51.669Z,16.07
2018-09-06T10:17:20.792Z,16.93
2018-09-06T10:19:49.969Z,15.03
2018-09-06T10:22:19.247Z,13.87
2018-09-06T10:24:48.801Z,14.47
2018-09-06T10:27:17.921Z,15.20
2018-09-06T10:29:47.104Z,14.93
2018-09-06T10:32:16.425Z,14.70
2018-09-06T10:34:45.590Z,14.73
2018-09-06T10:37:15.193Z,14.67
2018-09-06T10:39:44.606Z,15.00
2018-09-06T10:42:13.802Z,14.07
2018-09-06T10:44:43.089Z,13.80
2018-09-06T10:47:12.535Z,15.03
2018-09-06T10:49:42.379Z,14.73
2018-09-06T10:52:12.092Z,13.20
2018-09-06T10:54:41.315Z,13.50
2018-09-06T10:57:10.698Z,12.10
2018-09-06T10:59:40.095Z,14.07
2018-09-06T11:02:09.414Z,13.27
2018-09-06T11:04:39.523Z,12.90
2018-09-06T11:07:09.272Z,12.17
2018-09-06T11:09:38.928Z,12.93
2018-09-06T11:12:08.082Z,13.87
2018-09-06T11:14:37.386Z,11.90
2018-09-06T11:17:06.588Z,11.73
2018-09-06T11:19:35.726Z,14.17
2018-09-06T11:22:05.483Z,12.83
2018-09-06T11:24:34.670Z,12.20
2018-09-06T11:27:03.919Z,11.80
2018-09-06T11:29:33.029Z,14.30
2018-09-06T11:32:02.234Z,12.73
2018-09-06T11:34:31.480Z,11.97
2018-09-06T11:37:00.663Z,11.97
2018-09-06T11:39:29.916Z,12.40
2018-09-06T11:41:59.421Z,12.77
2018-09-06T11:44:29.797Z,12.23
2018-09-06T11:46:59.861Z,13.37
2018-09-06T11:49:29.084Z,12.70
2018-09-06T11:51:58.200Z,10.90
2018-09-06T11:54:27.312Z,11.80
2018-09-06T11:56:56.476Z,12.50
2018-09-06T11:59:25.747Z,10.90
2018-09-06T12:01:55.069Z,11.93
2018-09-06T12:04:24.382Z,11.40
2018-09-06T12:06:53.828Z,11.47
2018-09-06T12:09:23.071Z,12.43
2018-09-06T12:11:52.273Z,12.17
2018-09-06T12:14:21.754Z,10.90
2018-09-06T12:16:51.105Z,11.77
2018-09-06T12:19:44.424Z,10.97
2018-09-06T12:22:13.690Z,10.73
2018-09-06T12:42:47.820Z,9.80
2018-09-06T12:45:16.991Z,10.80
2018-09-06T12:47:46.171Z,11.00
2018-09-06T12:50:15.452Z,11.10
2018-09-06T12:52:44.650Z,10.80
2018-09-06T12:55:16.924Z,10.13
2018-09-06T12:57:46.066Z,9.60
2018-09-06T13:05:20.963Z,10.20
2018-09-06T13:07:50.097Z,9.73
2018-09-06T13:10:19.406Z,8.50
2018-09-06T13:12:48.544Z,8.60
2018-09-06T13:15:17.792Z,9.10
2018-09-06T13:17:46.976Z,9.73
2018-09-06T13:20:16.715Z,10.27
2018-09-06T13:22:46.087Z,9.23
2018-09-06T13:25:15.193Z,10.20
2018-09-06T13:27:44.413Z,10.27
2018-09-06T13:30:13.631Z,9.50
2018-09-06T13:32:42.855Z,10.20
2018-09-06T13:35:12.041Z,9.60
2018-09-06T13:37:41.213Z,10.37
2018-09-06T13:40:10.270Z,10.47
2018-09-06T13:42:39.705Z,9.43
2018-09-06T13:45:09.223Z,9.73
2018-09-06T13:47:38.448Z,10.60
2018-09-06T13:50:07.663Z,11.60
2018-09-06T13:52:36.910Z,10.03
2018-09-06T13:55:06.071Z,9.93
2018-09-06T13:57:35.259Z,9.50
2018-09-06T14:00:04.634Z,9.73
2018-09-06T14:02:33.866Z,9.53
2018-09-06T14:05:03.225Z,11.60
2018-09-06T14:07:32.501Z,9.30
2018-09-06T14:10:01.816Z,10.70
2018-09-06T14:12:31.303Z,9.43
2018-09-06T14:15:00.366Z,9.40
2018-09-06T14:17:29.728Z,8.60
2018-09-06T14:19:59.061Z,7.93
2018-09-06T14:22:28.691Z,8.03
2018-09-06T14:24:58.279Z,9.80
2018-09-06T14:27:28.086Z,8.90
2018-09-06T14:29:57.439Z,9.40
2018-09-06T14:32:30.271Z,8.47
2018-09-06T14:34:59.894Z,9.10
2018-09-06T14:37:30.038Z,8.80
2018-09-06T14:39:59.792Z,8.50
2018-09-06T14:42:30.208Z,8.37
2018-09-06T14:44:59.755Z,8.50
2018-09-06T14:47:30.003Z,7.53
2018-09-06T14:50:00.189Z,9.13
2018-09-06T14:52:29.495Z,8.03
2018-09-06T14:54:58.672Z,8.23
2018-09-06T14:57:27.950Z,8.57
2018-09-06T14:59:57.222Z,8.60
2018-09-06T15:02:26.474Z,9.43
2018-09-06T15:04:55.601Z,8.80
2018-09-06T15:07:24.920Z,8.87
2018-09-06T15:09:54.066Z,9.77
2018-09-06T15:12:23.219Z,8.77
2018-09-06T15:14:52.377Z,8.43
2018-09-06T15:17:21.809Z,8.60
2018-09-06T15:19:50.992Z,8.27
2018-09-06T15:22:20.227Z,7.73
2018-09-06T15:24:49.398Z,9.07
2018-09-06T15:27:18.625Z,8.77
2018-09-06T15:29:48.910Z,9.77
2018-09-06T15:32:19.076Z,9.73
2018-09-06T15:34:48.359Z,7.97
2018-09-06T15:37:18.082Z,8.10
2018-09-06T15:39:47.705Z,8.73
2018-09-06T15:42:17.561Z,9.10
2018-09-06T15:44:47.976Z,8.80
2018-09-06T15:47:17.839Z,9.30
2018-09-06T15:49:48.467Z,8.43
2018-09-06T15:52:17.884Z,7.60
2018-09-06T15:54:47.783Z,9.03
2018-09-06T15:57:17.148Z,9.13
2018-09-06T15:59:46.424Z,8.20
2018-09-06T16:02:15.709Z,8.07
2018-09-06T16:04:45.577Z,9.00
2018-09-06T16:07:15.579Z,8.83
2018-09-06T16:09:45.191Z,8.77
2018-09-06T16:12:14.658Z,8.47
2018-09-06T16:14:43.853Z,8.10
2018-09-06T16:17:13.126Z,9.17
2018-09-06T16:19:42.452Z,8.20
2018-09-06T16:22:11.507Z,8.90
2018-09-06T16:24:40.638Z,8.07
2018-09-06T16:27:09.821Z,9.00
2018-09-06T16:29:39.086Z,8.83
2018-09-06T16:32:44.267Z,8.53
2018-09-06T16:35:15.390Z,9.40
2018-09-06T16:37:44.719Z,8.77
2018-09-06T16:40:14.063Z,8.70
2018-09-06T16:42:44.243Z,8.53
2018-09-06T16:45:14.998Z,8.10
2018-09-06T16:47:44.235Z,7.70
2018-09-06T16:50:13.492Z,8.40
2018-09-06T16:52:42.761Z,7.63
2018-09-06T16:55:12.074Z,7.47
2018-09-06T16:57:41.240Z,7.37
2018-09-06T17:00:10.398Z,8.00
2018-09-06T17:02:39.660Z,7.10
2018-09-06T17:05:08.825Z,7.30
2018-09-06T17:07:38.362Z,8.60
2018-09-06T17:10:07.461Z,7.93
2018-09-06T17:12:36.616Z,8.10
2018-09-06T17:15:05.793Z,7.63
2018-09-06T17:17:35.041Z,8.00
2018-09-06T17:20:04.342Z,9.40
2018-09-06T17:22:33.480Z,8.17
2018-09-06T17:25:02.731Z,8.00
2018-09-06T17:27:31.952Z,8.00
2018-09-06T17:30:01.860Z,8.10
2018-09-06T17:32:31.166Z,10.40
2018-09-06T17:35:00.470Z,8.70
2018-09-06T17:37:29.703Z,7.63
2018-09-06T17:40:01.918Z,7.87
2018-09-06T17:42:32.260Z,7.83
2018-09-06T17:45:01.850Z,8.17
2018-09-06T17:47:31.582Z,8.97
2018-09-06T17:50:00.889Z,8.87
2018-09-06T17:52:31.146Z,9.60
2018-09-06T17:55:00.451Z,9.23
2018-09-06T17:57:29.763Z,9.17
2018-09-06T17:59:58.980Z,9.07
2018-09-06T18:02:28.120Z,10.20
2018-09-06T18:04:57.233Z,10.63
2018-09-06T18:07:26.353Z,10.00
2018-09-06T18:09:55.512Z,10.43
2018-09-06T18:12:24.703Z,10.77
2018-09-06T18:14:53.919Z,10.27
2018-09-06T18:17:23.095Z,9.57
2018-09-06T18:19:53.025Z,9.90
2018-09-06T18:22:22.241Z,10.90
2018-09-06T18:24:51.487Z,11.27
2018-09-06T18:27:20.888Z,10.00
2018-09-06T18:29:50.069Z,10.40
2018-09-06T18:32:19.181Z,11.53
2018-09-06T18:34:48.459Z,10.90
2018-09-06T18:37:18.526Z,10.37
2018-09-06T18:39:47.915Z,10.77
2018-09-06T18:42:17.177Z,11.20
2018-09-06T18:44:46.461Z,11.40
2018-09-06T18:47:15.910Z,10.63
2018-09-06T18:49:45.303Z,11.13
2018-09-06T18:52:15.028Z,11.93
2018-09-06T18:54:45.673Z,10.70
2018-09-06T18:57:15.108Z,11.53
2018-09-06T18:59:44.639Z,11.53
2018-09-06T19:02:14.209Z,10.50
2018-09-06T19:04:43.427Z,11.00
2018-09-06T19:07:13.192Z,11.43
2018-09-06T19:09:42.712Z,11.90
2018-09-06T19:12:12.122Z,12.67
2018-09-06T19:14:41.750Z,12.63
2018-09-06T19:17:15.495Z,14.10
2018-09-06T19:19:44.956Z,13.20
2018-09-06T19:22:14.501Z,13.33
2018-09-06T19:24:43.919Z,12.53
2018-09-06T19:27:13.672Z,13.20
2018-09-06T19:29:43.021Z,13.90
2018-09-06T19:32:12.324Z,13.60
2018-09-06T19:34:41.510Z,13.10
2018-09-06T19:37:10.807Z,14.33
2018-09-06T19:39:40.142Z,12.97
2018-09-06T19:42:09.392Z,13.43
2018-09-06T19:44:38.575Z,13.30
2018-09-06T19:47:07.834Z,13.87
2018-09-06T19:49:37.129Z,13.33
2018-09-06T19:52:06.329Z,14.47
2018-09-06T19:54:35.537Z,13.80
2018-09-06T19:57:04.743Z,13.33
2018-09-06T19:59:34.098Z,16.73
2018-09-06T20:02:03.551Z,15.00
2018-09-06T20:04:32.714Z,14.03
2018-09-06T20:07:01.889Z,14.70
2018-09-06T20:09:31.073Z,14.87
2018-09-06T20:12:00.242Z,15.30
2018-09-06T20:14:29.465Z,16.30
2018-09-06T20:16:58.621Z,15.70
2018-09-06T20:19:27.804Z,16.13
2018-09-06T20:21:57.332Z,16.20
2018-09-06T20:24:26.782Z,16.43
2018-09-06T20:26:56.042Z,16.50
2018-09-06T20:29:25.613Z,17.33
2018-09-06T20:31:54.829Z,17.53
2018-09-06T20:34:23.970Z,17.27
2018-09-06T20:36:53.529Z,16.97
2018-09-06T20:39:22.631Z,17.20
2018-09-06T20:41:51.802Z,18.20
2018-09-06T20:44:21.701Z,19.20
2018-09-06T20:46:51.322Z,18.00
2018-09-06T20:49:20.424Z,20.10
2018-09-06T20:51:49.746Z,18.00
2018-09-06T20:54:18.961Z,17.97
2018-09-06T20:56:48.079Z,20.47
2018-09-06T20:59:17.282Z,20.10
2018-09-06T21:01:46.644Z,20.30
2018-09-06T21:04:15.801Z,20.23
2018-09-06T21:06:44.968Z,22.30
2018-09-06T21:09:14.176Z,21.80
2018-09-06T21:11:43.461Z,22.10
2018-09-06T21:14:12.620Z,20.80
2018-09-06T21:16:41.757Z,22.77
2018-09-06T21:19:17.222Z,20.83
2018-09-06T21:21:46.293Z,22.93
2018-09-06T21:24:15.371Z,22.73
2018-09-06T21:26:44.525Z,24.77
2018-09-06T21:29:13.606Z,25.00
2018-09-06T21:31:42.743Z,26.13
2018-09-06T21:34:11.856Z,25.00
2018-09-06T21:36:41.087Z,26.57
2018-09-06T21:39:13.571Z,27.50
2018-09-06T21:41:43.432Z,29.27
2018-09-06T21:44:12.654Z,29.97
2018-09-06T21:46:42.134Z,30.27
2018-09-06T21:49:11.399Z,31.87
2018-09-06T21:51:40.569Z,30.90
2018-09-06T21:54:09.841Z,32.33
2018-09-06T21:56:39.082Z,30.60
2018-09-06T21:59:08.404Z,33.70
2018-09-06T22:01:37.667Z,32.73
2018-09-06T22:04:07.979Z,30.73
2018-09-06T22:06:38.124Z,31.67
2018-09-06T22:09:11.447Z,34.30
2018-09-06T22:11:40.694Z,34.93
2018-09-06T22:14:10.096Z,35.13
2018-09-06T22:17:42.501Z,33.63
2018-09-06T22:20:11.664Z,33.90
2018-09-06T22:22:40.886Z,36.20
2018-09-06T22:25:10.005Z,37.13
2018-09-06T22:27:39.109Z,37.47
2018-09-06T22:30:08.243Z,35.10
2018-09-06T22:32:37.345Z,37.37
2018-09-06T22:35:06.887Z,36.37
2018-09-06T22:37:35.997Z,38.00
2018-09-06T22:40:05.177Z,38.23
2018-09-06T22:42:34.225Z,42.27
2018-09-06T22:45:03.568Z,38.93
2018-09-06T22:47:32.616Z,37.40
2018-09-06T22:50:01.732Z,39.87
2018-09-06T22:52:30.876Z,41.73
2018-09-06T22:54:59.967Z,40.03
2018-09-06T22:57:29.109Z,43.40
2018-09-06T22:59:58.237Z,38.83
2018-09-06T23:02:32.691Z,43.10
2018-09-06T23:05:01.836Z,41.73
2018-09-06T23:07:31.194Z,42.97
2018-09-06T23:10:00.841Z,41.60
2018-09-06T23:12:29.876Z,42.77
2018-09-06T23:14:59.020Z,41.27
2018-09-06T23:17:29.177Z,41.30
2018-09-06T23:19:58.327Z,43.30
2018-09-06T23:22:27.437Z,40.73
2018-09-06T23:24:56.579Z,41.50
2018-09-06T23:27:26.752Z,42.73
2018-09-06T23:29:56.070Z,44.23
2018-09-06T23:32:25.300Z,44.20
2018-09-06T23:34:54.631Z,41.60
2018-09-06T23:37:23.749Z,43.63
2018-09-06T23:39:52.826Z,44.20
2018-09-06T23:42:24.563Z,44.83
2018-09-06T23:44:55.348Z,48.97
2018-09-06T23:47:24.508Z,46.83
2018-09-06T23:49:53.746Z,52.13
2018-09-06T23:52:22.981Z,52.13
2018-09-06T23:54:52.171Z,52.33
2018-09-06T23:57:21.471Z,53.87
2018-09-06T23:59:50.549Z,55.03
